Amy Moran — WBO5109 — position and weather

sailwx.info

Track history (hours):
 
Tides and Currents Weather Stations Pressure Air Temp Water Temp Dewpoint Dewpoint Depression Visibility Wind Speed Wind Dir Waves Ship Positions

Amy Moran

Owner: MORAN TOWING CORPORATION, New Canaan, CT. More information available from US FCC via Universal Licensing System and Coast Guard Vessel Documentation Center.

Last reported at 2018-Jun-22 16:18 UTC. Time now 2018-Jun-22 16:55 UTC.
Position N 40°38' W 074°12'.

Length 34 m; draft 6 m.

Type: Tug. MMSI: 366939780.

Date/timePositionNaut miles runAvg speedWind from/ knotsBaromVisibWave heightAir tempDewpointWater temp
2018-Jun-22 16:18N 40°38' W 074°12'0 0.0
2018-Jun-22 15:59N 40°38' W 074°12'2 5.1
2018-Jun-22 15:30N 40°39' W 074°09'1 0.3
2018-Jun-22 11:59N 40°38' W 074°08'0 0.0
2018-Jun-22 11:29N 40°38' W 074°08'0 0.0
2018-Jun-22 11:00N 40°38' W 074°08'0 0.0
2018-Jun-22 10:27N 40°38' W 074°08'0 0.0
2018-Jun-22 10:00N 40°38' W 074°08'4 1.5
2018-Jun-22 07:41N 40°37' W 074°12'1 4.9
2018-Jun-22 07:29N 40°38' W 074°12'3 6.1
2018-Jun-22 06:59N 40°39' W 074°08'1 2.1
2018-Jun-22 06:30N 40°39' W 074°06'1 0.3
2018-Jun-22 02:59N 40°38' W 074°08'0 0.0
2018-Jun-22 02:29N 40°38' W 074°08'0 0.0
2018-Jun-21 20:41N 40°38' W 074°08'0 0.0
2018-Jun-21 20:11N 40°38' W 074°08'0 0.0
2018-Jun-21 19:59N 40°38' W 074°08'0 0.1
2018-Jun-21 19:06N 40°38' W 074°08'0 0.0
2018-Jun-21 18:51N 40°38' W 074°08'0 0.0
2018-Jun-21 18:15N 40°38' W 074°08'0 0.0
2018-Jun-21 17:57N 40°38' W 074°08'0 0.0
2018-Jun-21 17:30N 40°38' W 074°08'0 0.0
2018-Jun-21 17:00N 40°38' W 074°08'0 0.0
2018-Jun-21 16:30N 40°38' W 074°08'0 0.0
2018-Jun-21 15:45N 40°38' W 074°08'0 0.0
2018-Jun-21 15:30N 40°38' W 074°08'0 0.0
2018-Jun-21 14:54N 40°38' W 074°08'0 0.0
2018-Jun-21 14:24N 40°38' W 074°08'0 0.0
2018-Jun-21 13:54N 40°38' W 074°08'0 0.0
2018-Jun-21 13:30N 40°38' W 074°08'1 2.2
2018-Jun-21 12:59N 40°39' W 074°06'510.3
2018-Jun-21 12:30N 40°42' W 074°02'4 3.4
2018-Jun-21 11:20N 40°46' W 074°00'1 2.1
2018-Jun-21 11:00N 40°46' W 074°01'1 0.9
2018-Jun-21 10:13N 40°46' W 074°00'1 1.1
2018-Jun-21 09:30N 40°45' W 074°01'1 2.1
2018-Jun-21 09:01N 40°44' W 074°01'2 3.8
2018-Jun-21 08:30N 40°43' W 074°01'2 3.7
2018-Jun-21 08:01N 40°41' W 074°01'1 1.2
2018-Jun-21 07:30N 40°41' W 074°01'3 5.0
2018-Jun-21 07:00N 40°40' W 074°03'4 6.3
2018-Jun-21 06:25N 40°38' W 074°08'0 0.0
2018-Jun-21 05:55N 40°38' W 074°08'0 0.0
2018-Jun-21 05:24N 40°38' W 074°08'0 0.0
2018-Jun-21 04:23N 40°38' W 074°08'0 0.0
2018-Jun-21 03:58N 40°38' W 074°08'0 0.0
2018-Jun-21 03:27N 40°38' W 074°08'0 0.0
2018-Jun-21 03:00N 40°38' W 074°08'0 0.0
2018-Jun-21 02:30N 40°38' W 074°08'0 0.0
2018-Jun-21 01:29N 40°38' W 074°08'0 0.0
2018-Jun-21 00:47N 40°38' W 074°08'0 0.0
2018-Jun-21 00:29N 40°38' W 074°08'0 0.0
2018-Jun-20 23:18N 40°38' W 074°08'0 0.0
2018-Jun-20 22:58N 40°38' W 074°08'1 1.4
2018-Jun-20 22:30N 40°39' W 074°09'2 0.5
2018-Jun-20 18:35N 40°39' W 074°11'2 6.2
2018-Jun-20 18:16N 40°39' W 074°09'2 6.8
2018-Jun-20 18:00N 40°39' W 074°06'1 1.4
2018-Jun-20 17:14N 40°38' W 074°08'0 0.0
2018-Jun-20 14:38N 40°38' W 074°08'0 0.0
2018-Jun-20 14:08N 40°38' W 074°08'0 0.0
2018-Jun-20 13:56N 40°38' W 074°08'0 0.0
2018-Jun-20 09:20N 40°38' W 074°08'0 0.0
2018-Jun-20 08:44N 40°38' W 074°08'0 0.0
2018-Jun-20 08:14N 40°38' W 074°08'0 0.0
2018-Jun-20 06:56N 40°38' W 074°08'0 0.0
2018-Jun-20 06:26N 40°38' W 074°08'0 0.0
2018-Jun-20 05:50N 40°38' W 074°08'0 0.0
2018-Jun-20 03:41N 40°38' W 074°08'0 0.0
2018-Jun-19 19:08N 40°38' W 074°08'0 0.0
2018-Jun-19 18:08N 40°38' W 074°08'0 0.0
2018-Jun-19 17:47N 40°38' W 074°08'0 0.0
2018-Jun-19 17:26N 40°38' W 074°08'0 0.0
2018-Jun-19 16:50N 40°38' W 074°08'0 0.0
2018-Jun-19 15:50N 40°38' W 074°08'0 0.0
2018-Jun-19 13:02N 40°38' W 074°08'0 0.0
2018-Jun-19 12:38N 40°38' W 074°08'0 0.0
2018-Jun-19 12:20N 40°38' W 074°08'0 0.0
2018-Jun-19 11:20N 40°38' W 074°08'0 0.0
2018-Jun-19 10:38N 40°38' W 074°08'0 0.0
2018-Jun-19 10:26N 40°38' W 074°08'0 0.0
2018-Jun-19 09:56N 40°38' W 074°08'0 0.0
2018-Jun-19 09:14N 40°38' W 074°08'0 0.0
2018-Jun-19 08:59N 40°38' W 074°08'0 0.0
2018-Jun-19 08:17N 40°38' W 074°08'0 0.0
2018-Jun-19 07:56N 40°38' W 074°08'0 0.0
2018-Jun-19 07:26N 40°38' W 074°08'0 0.0
2018-Jun-19 06:59N 40°38' W 074°08'0 0.0
2018-Jun-19 06:23N 40°38' W 074°08'0 0.0
2018-Jun-19 05:56N 40°38' W 074°08'0 0.0
2018-Jun-19 05:29N 40°38' W 074°08'0 0.0
2018-Jun-19 04:50N 40°38' W 074°08'0 0.0
2018-Jun-19 03:56N 40°38' W 074°08'0 0.0
2018-Jun-19 03:26N 40°38' W 074°08'0 0.0
2018-Jun-19 02:56N 40°38' W 074°08'0 0.0
2018-Jun-19 02:26N 40°38' W 074°08'0 0.0
2018-Jun-19 01:50N 40°38' W 074°08'0 0.0
2018-Jun-19 00:26N 40°38' W 074°08'0 0.0
2018-Jun-18 23:14N 40°38' W 074°08'0 0.0
2018-Jun-18 22:38N 40°38' W 074°08'0 0.0
2018-Jun-18 18:08N 40°38' W 074°08'0 0.0
2018-Jun-18 15:00N 40°38' W 074°08'0 0.0
2018-Jun-18 14:18N 40°38' W 074°08'0 0.0
2018-Jun-18 14:00N 40°38' W 074°08'0 0.0
2018-Jun-18 13:27N 40°38' W 074°08'0 0.0
2018-Jun-18 12:00N 40°38' W 074°08'0 0.0
2018-Jun-18 11:24N 40°38' W 074°08'0 0.0
2018-Jun-18 11:00N 40°38' W 074°08'0 0.0
2018-Jun-18 10:30N 40°38' W 074°08'0 0.0
2018-Jun-18 09:57N 40°38' W 074°08'0 0.0
2018-Jun-18 09:27N 40°38' W 074°08'0 0.0
2018-Jun-18 08:57N 40°38' W 074°08'0 0.0
2018-Jun-18 08:27N 40°38' W 074°08'0 0.0
2018-Jun-18 07:57N 40°38' W 074°08'0 0.0
2018-Jun-18 07:15N 40°38' W 074°08'0 0.0
2018-Jun-18 06:51N 40°38' W 074°08'0 0.0
2018-Jun-18 05:33N 40°38' W 074°08'0 0.0
2018-Jun-18 05:15N 40°38' W 074°08'0 0.0
2018-Jun-18 04:45N 40°38' W 074°08'0 0.0
2018-Jun-18 04:21N 40°38' W 074°08'0 0.0
2018-Jun-18 01:45N 40°38' W 074°08'0 0.0
2018-Jun-17 22:51N 40°38' W 074°08'0 0.0
2018-Jun-17 22:27N 40°38' W 074°08'0 0.0
2018-Jun-17 21:57N 40°38' W 074°08'0 0.0
2018-Jun-17 10:51N 40°38' W 074°08'0 0.0
2018-Jun-17 10:27N 40°38' W 074°08'0 0.0
2018-Jun-17 09:57N 40°38' W 074°08'0 0.0
2018-Jun-17 09:27N 40°38' W 074°08'0 0.0
2018-Jun-17 08:57N 40°38' W 074°08'0 0.0
2018-Jun-17 08:27N 40°38' W 074°08'0 0.0
2018-Jun-17 07:27N 40°38' W 074°08'0 0.0
2018-Jun-17 06:54N 40°38' W 074°08'0 0.0
2018-Jun-17 06:30N 40°38' W 074°08'0 0.0
2018-Jun-17 05:51N 40°38' W 074°08'0 0.0
2018-Jun-17 05:30N 40°38' W 074°08'0 0.0
2018-Jun-17 04:45N 40°38' W 074°08'0 0.0
2018-Jun-17 04:30N 40°38' W 074°08'0 0.0
2018-Jun-17 03:57N 40°38' W 074°08'0 0.0
2018-Jun-17 03:27N 40°38' W 074°08'0 0.0
2018-Jun-17 02:57N 40°38' W 074°08'0 0.0
2018-Jun-17 02:18N 40°38' W 074°08'0 0.0
2018-Jun-17 02:00N 40°38' W 074°08'0 0.0
2018-Jun-17 01:27N 40°38' W 074°08'0 0.0
2018-Jun-17 00:57N 40°38' W 074°08'0 0.0
2018-Jun-17 00:15N 40°38' W 074°08'0 0.0
2018-Jun-17 00:00N 40°38' W 074°08'0 0.0
2018-Jun-16 23:27N 40°38' W 074°08'0 0.0
2018-Jun-16 23:00N 40°38' W 074°08'0 0.0
2018-Jun-16 22:30N 40°38' W 074°08'0 0.0
2018-Jun-16 21:57N 40°38' W 074°08'0 0.0
2018-Jun-16 21:21N 40°38' W 074°08'0 0.0
2018-Jun-16 21:00N 40°38' W 074°08'0 0.0
2018-Jun-16 20:15N 40°38' W 074°08'0 0.0
2018-Jun-16 19:57N 40°38' W 074°08'0 0.0
2018-Jun-16 19:03N 40°38' W 074°08'0 0.0
2018-Jun-16 18:57N 40°38' W 074°08'0 0.0
2018-Jun-16 17:33N 40°38' W 074°08'0 0.0
2018-Jun-16 17:24N 40°38' W 074°08'0 0.0
2018-Jun-16 14:42N 40°38' W 074°08'0 0.0
2018-Jun-16 14:27N 40°38' W 074°08'0 0.0
2018-Jun-16 11:57N 40°38' W 074°08'0 0.0
2018-Jun-16 11:24N 40°38' W 074°08'0 0.0
2018-Jun-16 10:57N 40°38' W 074°08'0 0.0
2018-Jun-16 10:09N 40°38' W 074°08'0 0.0
2018-Jun-16 09:39N 40°38' W 074°08'0 0.0
2018-Jun-16 09:09N 40°38' W 074°08'0 0.0
2018-Jun-16 09:00N 40°38' W 074°08'0 0.0
2018-Jun-16 08:21N 40°38' W 074°08'0 0.0
2018-Jun-16 05:42N 40°38' W 074°08'0 0.0
2018-Jun-16 05:27N 40°38' W 074°08'0 0.0
2018-Jun-16 04:57N 40°38' W 074°08'0 0.0
2018-Jun-16 04:30N 40°38' W 074°08'0 0.0
2018-Jun-16 03:51N 40°38' W 074°08'0 0.0
2018-Jun-16 03:27N 40°38' W 074°08'0 0.0
2018-Jun-16 02:51N 40°38' W 074°08'0 0.0
2018-Jun-16 01:15N 40°38' W 074°08'0 0.0
2018-Jun-16 00:09N 40°38' W 074°08'0 0.0
2018-Jun-15 23:57N 40°38' W 074°08'0 0.0
2018-Jun-15 23:15N 40°38' W 074°08'0 0.0
2018-Jun-15 23:00N 40°38' W 074°08'0 0.0
2018-Jun-15 22:30N 40°38' W 074°08'0 0.0
2018-Jun-15 21:51N 40°38' W 074°08'0 0.0
2018-Jun-15 20:51N 40°38' W 074°08'0 0.0
2018-Jun-15 20:24N 40°38' W 074°08'0 0.0
2018-Jun-15 13:06N 40°38' W 074°08'0 0.0
2018-Jun-15 12:06N 40°38' W 074°08'0 0.0
2018-Jun-15 11:36N 40°38' W 074°08'0 0.0
2018-Jun-15 11:24N 40°38' W 074°08'0 0.0
2018-Jun-15 10:54N 40°38' W 074°08'0 0.0
2018-Jun-15 09:36N 40°38' W 074°08'0 0.1
2018-Jun-15 09:30N 40°38' W 074°08'0 0.0
2018-Jun-15 09:00N 40°38' W 074°08'0 0.0
2018-Jun-15 08:21N 40°38' W 074°08'0 0.0
2018-Jun-15 07:57N 40°38' W 074°08'0 0.0
2018-Jun-15 07:27N 40°38' W 074°08'0 0.0
2018-Jun-15 07:00N 40°38' W 074°08'0 0.0
2018-Jun-15 04:54N 40°38' W 074°08'0 0.0
2018-Jun-15 04:30N 40°38' W 074°08'0 0.0
2018-Jun-15 02:24N 40°38' W 074°08'0 0.0
2018-Jun-15 02:00N 40°38' W 074°08'0 0.0
2018-Jun-15 01:18N 40°38' W 074°08'0 0.0
2018-Jun-15 01:00N 40°38' W 074°08'0 0.0
2018-Jun-15 00:24N 40°38' W 074°08'0 0.0
2018-Jun-14 23:42N 40°38' W 074°08'0 0.0
2018-Jun-14 22:06N 40°38' W 074°08'0 0.0
2018-Jun-14 21:54N 40°38' W 074°08'0 0.0
2018-Jun-14 21:24N 40°38' W 074°08'0 0.0
2018-Jun-14 21:00N 40°38' W 074°08'0 0.0
2018-Jun-14 20:09N 40°38' W 074°08'0 0.0
2018-Jun-14 19:57N 40°38' W 074°08'0 0.0
2018-Jun-14 19:27N 40°38' W 074°08'0 0.0
2018-Jun-14 18:57N 40°38' W 074°08'0 0.0
2018-Jun-14 16:27N 40°38' W 074°08'0 0.0
2018-Jun-14 15:57N 40°38' W 074°08'0 0.0
2018-Jun-14 13:36N 40°38' W 074°08'0 0.1
2018-Jun-14 13:27N 40°38' W 074°08'0 0.0
2018-Jun-14 13:00N 40°38' W 074°08'0 0.0
2018-Jun-14 12:27N 40°38' W 074°08'0 0.0
2018-Jun-14 11:12N 40°38' W 074°08'0 0.0
2018-Jun-14 09:42N 40°38' W 074°08'0 0.0
2018-Jun-14 09:15N 40°38' W 074°08'0 0.0
2018-Jun-14 05:27N 40°38' W 074°08'0 0.0
2018-Jun-14 03:35N 40°38' W 074°08'0 0.0
2018-Jun-14 03:27N 40°38' W 074°08'0 0.0
2018-Jun-13 23:45N 40°38' W 074°08'0 0.0
2018-Jun-13 23:27N 40°38' W 074°08'0 0.0
2018-Jun-13 22:59N 40°38' W 074°08'0 0.0
2018-Jun-13 22:24N 40°38' W 074°08'0 0.0
2018-Jun-13 19:11N 40°38' W 074°08'0 0.0
2018-Jun-13 18:57N 40°38' W 074°08'0 0.0
2018-Jun-13 18:26N 40°38' W 074°08'0 0.0
2018-Jun-13 17:53N 40°38' W 074°08'0 0.0
2018-Jun-13 17:02N 40°38' W 074°08'0 0.0
2018-Jun-13 16:59N 40°38' W 074°08'0 0.0
2018-Jun-13 14:21N 40°38' W 074°08'0 0.0
2018-Jun-13 10:56N 40°38' W 074°08'0 0.0
2018-Jun-13 10:29N 40°38' W 074°08'0 0.0
2018-Jun-13 10:00N 40°38' W 074°08'0 0.0
2018-Jun-13 09:20N 40°38' W 074°08'0 0.0
2018-Jun-13 09:00N 40°38' W 074°08'0 0.0
2018-Jun-13 08:17N 40°38' W 074°08'0 0.0
2018-Jun-13 05:56N 40°38' W 074°08'0 0.0
2018-Jun-13 04:08N 40°38' W 074°08'0 0.0
2018-Jun-13 02:41N 40°38' W 074°08'0 0.0
2018-Jun-13 02:12N 40°38' W 074°08'0 0.0
2018-Jun-13 01:56N 40°38' W 074°08'0 0.0
2018-Jun-13 01:26N 40°38' W 074°08'0 0.0
2018-Jun-13 00:50N 40°38' W 074°08'0 0.0
2018-Jun-12 20:14N 40°38' W 074°08'  
Track history (hours):
 
Tides and Currents Weather Stations Pressure Air Temp Water Temp Dewpoint Dewpoint Depression Visibility Wind Speed Wind Dir Waves Ship Positions

Amy Moran

Owner: MORAN TOWING CORPORATION, New Canaan, CT. More information available from US FCC via Universal Licensing System and Coast Guard Vessel Documentation Center.

Last reported at 2018-Jun-22 16:18 UTC. Time now 2018-Jun-22 16:55 UTC.
Position N 40°38' W 074°12'.

Length 34 m; draft 6 m.

Type: Tug. MMSI: 366939780.

Date/timePositionNaut miles runAvg speedWind from/ knotsBaromVisibWave heightAir tempDewpointWater temp
2018-Jun-22 16:18N 40°38' W 074°12'0 0.0
2018-Jun-22 15:59N 40°38' W 074°12'2 5.1
2018-Jun-22 15:30N 40°39' W 074°09'1 0.3
2018-Jun-22 11:59N 40°38' W 074°08'0 0.0
2018-Jun-22 11:29N 40°38' W 074°08'0 0.0
2018-Jun-22 11:00N 40°38' W 074°08'0 0.0
2018-Jun-22 10:27N 40°38' W 074°08'0 0.0
2018-Jun-22 10:00N 40°38' W 074°08'4 1.5
2018-Jun-22 07:41N 40°37' W 074°12'1 4.9
2018-Jun-22 07:29N 40°38' W 074°12'3 6.1
2018-Jun-22 06:59N 40°39' W 074°08'1 2.1
2018-Jun-22 06:30N 40°39' W 074°06'1 0.3
2018-Jun-22 02:59N 40°38' W 074°08'0 0.0
2018-Jun-22 02:29N 40°38' W 074°08'0 0.0
2018-Jun-21 20:41N 40°38' W 074°08'0 0.0
2018-Jun-21 20:11N 40°38' W 074°08'0 0.0
2018-Jun-21 19:59N 40°38' W 074°08'0 0.1
2018-Jun-21 19:06N 40°38' W 074°08'0 0.0
2018-Jun-21 18:51N 40°38' W 074°08'0 0.0
2018-Jun-21 18:15N 40°38' W 074°08'0 0.0
2018-Jun-21 17:57N 40°38' W 074°08'0 0.0
2018-Jun-21 17:30N 40°38' W 074°08'0 0.0
2018-Jun-21 17:00N 40°38' W 074°08'0 0.0
2018-Jun-21 16:30N 40°38' W 074°08'0 0.0
2018-Jun-21 15:45N 40°38' W 074°08'0 0.0
2018-Jun-21 15:30N 40°38' W 074°08'0 0.0
2018-Jun-21 14:54N 40°38' W 074°08'0 0.0
2018-Jun-21 14:24N 40°38' W 074°08'0 0.0
2018-Jun-21 13:54N 40°38' W 074°08'0 0.0
2018-Jun-21 13:30N 40°38' W 074°08'1 2.2
2018-Jun-21 12:59N 40°39' W 074°06'510.3
2018-Jun-21 12:30N 40°42' W 074°02'4 3.4
2018-Jun-21 11:20N 40°46' W 074°00'1 2.1
2018-Jun-21 11:00N 40°46' W 074°01'1 0.9
2018-Jun-21 10:13N 40°46' W 074°00'1 1.1
2018-Jun-21 09:30N 40°45' W 074°01'1 2.1
2018-Jun-21 09:01N 40°44' W 074°01'2 3.8
2018-Jun-21 08:30N 40°43' W 074°01'2 3.7
2018-Jun-21 08:01N 40°41' W 074°01'1 1.2
2018-Jun-21 07:30N 40°41' W 074°01'3 5.0
2018-Jun-21 07:00N 40°40' W 074°03'4 6.3
2018-Jun-21 06:25N 40°38' W 074°08'0 0.0
2018-Jun-21 05:55N 40°38' W 074°08'0 0.0
2018-Jun-21 05:24N 40°38' W 074°08'0 0.0
2018-Jun-21 04:23N 40°38' W 074°08'0 0.0
2018-Jun-21 03:58N 40°38' W 074°08'0 0.0
2018-Jun-21 03:27N 40°38' W 074°08'0 0.0
2018-Jun-21 03:00N 40°38' W 074°08'0 0.0
2018-Jun-21 02:30N 40°38' W 074°08'0 0.0
2018-Jun-21 01:29N 40°38' W 074°08'0 0.0
2018-Jun-21 00:47N 40°38' W 074°08'0 0.0
2018-Jun-21 00:29N 40°38' W 074°08'0 0.0
2018-Jun-20 23:18N 40°38' W 074°08'0 0.0
2018-Jun-20 22:58N 40°38' W 074°08'1 1.4
2018-Jun-20 22:30N 40°39' W 074°09'2 0.5
2018-Jun-20 18:35N 40°39' W 074°11'2 6.2
2018-Jun-20 18:16N 40°39' W 074°09'2 6.8
2018-Jun-20 18:00N 40°39' W 074°06'1 1.4
2018-Jun-20 17:14N 40°38' W 074°08'0 0.0
2018-Jun-20 14:38N 40°38' W 074°08'0 0.0
2018-Jun-20 14:08N 40°38' W 074°08'0 0.0
2018-Jun-20 13:56N 40°38' W 074°08'0 0.0
2018-Jun-20 09:20N 40°38' W 074°08'0 0.0
2018-Jun-20 08:44N 40°38' W 074°08'0 0.0
2018-Jun-20 08:14N 40°38' W 074°08'0 0.0
2018-Jun-20 06:56N 40°38' W 074°08'0 0.0
2018-Jun-20 06:26N 40°38' W 074°08'0 0.0
2018-Jun-20 05:50N 40°38' W 074°08'0 0.0
2018-Jun-20 03:41N 40°38' W 074°08'0 0.0
2018-Jun-19 19:08N 40°38' W 074°08'0 0.0
2018-Jun-19 18:08N 40°38' W 074°08'0 0.0
2018-Jun-19 17:47N 40°38' W 074°08'0 0.0
2018-Jun-19 17:26N 40°38' W 074°08'0 0.0
2018-Jun-19 16:50N 40°38' W 074°08'0 0.0
2018-Jun-19 15:50N 40°38' W 074°08'0 0.0
2018-Jun-19 13:02N 40°38' W 074°08'0 0.0
2018-Jun-19 12:38N 40°38' W 074°08'0 0.0
2018-Jun-19 12:20N 40°38' W 074°08'0 0.0
2018-Jun-19 11:20N 40°38' W 074°08'0 0.0
2018-Jun-19 10:38N 40°38' W 074°08'0 0.0
2018-Jun-19 10:26N 40°38' W 074°08'0 0.0
2018-Jun-19 09:56N 40°38' W 074°08'0 0.0
2018-Jun-19 09:14N 40°38' W 074°08'0 0.0
2018-Jun-19 08:59N 40°38' W 074°08'0 0.0
2018-Jun-19 08:17N 40°38' W 074°08'0 0.0
2018-Jun-19 07:56N 40°38' W 074°08'0 0.0
2018-Jun-19 07:26N 40°38' W 074°08'0 0.0
2018-Jun-19 06:59N 40°38' W 074°08'0 0.0
2018-Jun-19 06:23N 40°38' W 074°08'0 0.0
2018-Jun-19 05:56N 40°38' W 074°08'0 0.0
2018-Jun-19 05:29N 40°38' W 074°08'0 0.0
2018-Jun-19 04:50N 40°38' W 074°08'0 0.0
2018-Jun-19 03:56N 40°38' W 074°08'0 0.0
2018-Jun-19 03:26N 40°38' W 074°08'0 0.0
2018-Jun-19 02:56N 40°38' W 074°08'0 0.0
2018-Jun-19 02:26N 40°38' W 074°08'0 0.0
2018-Jun-19 01:50N 40°38' W 074°08'0 0.0
2018-Jun-19 00:26N 40°38' W 074°08'0 0.0
2018-Jun-18 23:14N 40°38' W 074°08'0 0.0
2018-Jun-18 22:38N 40°38' W 074°08'0 0.0
2018-Jun-18 18:08N 40°38' W 074°08'0 0.0
2018-Jun-18 15:00N 40°38' W 074°08'0 0.0
2018-Jun-18 14:18N 40°38' W 074°08'0 0.0
2018-Jun-18 14:00N 40°38' W 074°08'0 0.0
2018-Jun-18 13:27N 40°38' W 074°08'0 0.0
2018-Jun-18 12:00N 40°38' W 074°08'0 0.0
2018-Jun-18 11:24N 40°38' W 074°08'0 0.0
2018-Jun-18 11:00N 40°38' W 074°08'0 0.0
2018-Jun-18 10:30N 40°38' W 074°08'0 0.0
2018-Jun-18 09:57N 40°38' W 074°08'0 0.0
2018-Jun-18 09:27N 40°38' W 074°08'0 0.0
2018-Jun-18 08:57N 40°38' W 074°08'0 0.0
2018-Jun-18 08:27N 40°38' W 074°08'0 0.0
2018-Jun-18 07:57N 40°38' W 074°08'0 0.0
2018-Jun-18 07:15N 40°38' W 074°08'0 0.0
2018-Jun-18 06:51N 40°38' W 074°08'0 0.0
2018-Jun-18 05:33N 40°38' W 074°08'0 0.0
2018-Jun-18 05:15N 40°38' W 074°08'0 0.0
2018-Jun-18 04:45N 40°38' W 074°08'0 0.0
2018-Jun-18 04:21N 40°38' W 074°08'0 0.0
2018-Jun-18 01:45N 40°38' W 074°08'0 0.0
2018-Jun-17 22:51N 40°38' W 074°08'0 0.0
2018-Jun-17 22:27N 40°38' W 074°08'0 0.0
2018-Jun-17 21:57N 40°38' W 074°08'0 0.0
2018-Jun-17 10:51N 40°38' W 074°08'0 0.0
2018-Jun-17 10:27N 40°38' W 074°08'0 0.0
2018-Jun-17 09:57N 40°38' W 074°08'0 0.0
2018-Jun-17 09:27N 40°38' W 074°08'0 0.0
2018-Jun-17 08:57N 40°38' W 074°08'0 0.0
2018-Jun-17 08:27N 40°38' W 074°08'0 0.0
2018-Jun-17 07:27N 40°38' W 074°08'0 0.0
2018-Jun-17 06:54N 40°38' W 074°08'0 0.0
2018-Jun-17 06:30N 40°38' W 074°08'0 0.0
2018-Jun-17 05:51N 40°38' W 074°08'0 0.0
2018-Jun-17 05:30N 40°38' W 074°08'0 0.0
2018-Jun-17 04:45N 40°38' W 074°08'0 0.0
2018-Jun-17 04:30N 40°38' W 074°08'0 0.0
2018-Jun-17 03:57N 40°38' W 074°08'0 0.0
2018-Jun-17 03:27N 40°38' W 074°08'0 0.0
2018-Jun-17 02:57N 40°38' W 074°08'0 0.0
2018-Jun-17 02:18N 40°38' W 074°08'0 0.0
2018-Jun-17 02:00N 40°38' W 074°08'0 0.0
2018-Jun-17 01:27N 40°38' W 074°08'0 0.0
2018-Jun-17 00:57N 40°38' W 074°08'0 0.0
2018-Jun-17 00:15N 40°38' W 074°08'0 0.0
2018-Jun-17 00:00N 40°38' W 074°08'0 0.0
2018-Jun-16 23:27N 40°38' W 074°08'0 0.0
2018-Jun-16 23:00N 40°38' W 074°08'0 0.0
2018-Jun-16 22:30N 40°38' W 074°08'0 0.0
2018-Jun-16 21:57N 40°38' W 074°08'0 0.0
2018-Jun-16 21:21N 40°38' W 074°08'0 0.0
2018-Jun-16 21:00N 40°38' W 074°08'0 0.0
2018-Jun-16 20:15N 40°38' W 074°08'0 0.0
2018-Jun-16 19:57N 40°38' W 074°08'0 0.0
2018-Jun-16 19:03N 40°38' W 074°08'0 0.0
2018-Jun-16 18:57N 40°38' W 074°08'0 0.0
2018-Jun-16 17:33N 40°38' W 074°08'0 0.0
2018-Jun-16 17:24N 40°38' W 074°08'0 0.0
2018-Jun-16 14:42N 40°38' W 074°08'0 0.0
2018-Jun-16 14:27N 40°38' W 074°08'0 0.0
2018-Jun-16 11:57N 40°38' W 074°08'0 0.0
2018-Jun-16 11:24N 40°38' W 074°08'0 0.0
2018-Jun-16 10:57N 40°38' W 074°08'0 0.0
2018-Jun-16 10:09N 40°38' W 074°08'0 0.0
2018-Jun-16 09:39N 40°38' W 074°08'0 0.0
2018-Jun-16 09:09N 40°38' W 074°08'0 0.0
2018-Jun-16 09:00N 40°38' W 074°08'0 0.0
2018-Jun-16 08:21N 40°38' W 074°08'0 0.0
2018-Jun-16 05:42N 40°38' W 074°08'0 0.0
2018-Jun-16 05:27N 40°38' W 074°08'0 0.0
2018-Jun-16 04:57N 40°38' W 074°08'0 0.0
2018-Jun-16 04:30N 40°38' W 074°08'0 0.0
2018-Jun-16 03:51N 40°38' W 074°08'0 0.0
2018-Jun-16 03:27N 40°38' W 074°08'0 0.0
2018-Jun-16 02:51N 40°38' W 074°08'0 0.0
2018-Jun-16 01:15N 40°38' W 074°08'0 0.0
2018-Jun-16 00:09N 40°38' W 074°08'0 0.0
2018-Jun-15 23:57N 40°38' W 074°08'0 0.0
2018-Jun-15 23:15N 40°38' W 074°08'0 0.0
2018-Jun-15 23:00N 40°38' W 074°08'0 0.0
2018-Jun-15 22:30N 40°38' W 074°08'0 0.0
2018-Jun-15 21:51N 40°38' W 074°08'0 0.0
2018-Jun-15 20:51N 40°38' W 074°08'0 0.0
2018-Jun-15 20:24N 40°38' W 074°08'0 0.0
2018-Jun-15 13:06N 40°38' W 074°08'0 0.0
2018-Jun-15 12:06N 40°38' W 074°08'0 0.0
2018-Jun-15 11:36N 40°38' W 074°08'0 0.0
2018-Jun-15 11:24N 40°38' W 074°08'0 0.0
2018-Jun-15 10:54N 40°38' W 074°08'0 0.0
2018-Jun-15 09:36N 40°38' W 074°08'0 0.1
2018-Jun-15 09:30N 40°38' W 074°08'0 0.0
2018-Jun-15 09:00N 40°38' W 074°08'0 0.0
2018-Jun-15 08:21N 40°38' W 074°08'0 0.0
2018-Jun-15 07:57N 40°38' W 074°08'0 0.0
2018-Jun-15 07:27N 40°38' W 074°08'0 0.0
2018-Jun-15 07:00N 40°38' W 074°08'0 0.0
2018-Jun-15 04:54N 40°38' W 074°08'0 0.0
2018-Jun-15 04:30N 40°38' W 074°08'0 0.0
2018-Jun-15 02:24N 40°38' W 074°08'0 0.0
2018-Jun-15 02:00N 40°38' W 074°08'0 0.0
2018-Jun-15 01:18N 40°38' W 074°08'0 0.0
2018-Jun-15 01:00N 40°38' W 074°08'0 0.0
2018-Jun-15 00:24N 40°38' W 074°08'0 0.0
2018-Jun-14 23:42N 40°38' W 074°08'0 0.0
2018-Jun-14 22:06N 40°38' W 074°08'0 0.0
2018-Jun-14 21:54N 40°38' W 074°08'0 0.0
2018-Jun-14 21:24N 40°38' W 074°08'0 0.0
2018-Jun-14 21:00N 40°38' W 074°08'0 0.0
2018-Jun-14 20:09N 40°38' W 074°08'0 0.0
2018-Jun-14 19:57N 40°38' W 074°08'0 0.0
2018-Jun-14 19:27N 40°38' W 074°08'0 0.0
2018-Jun-14 18:57N 40°38' W 074°08'0 0.0
2018-Jun-14 16:27N 40°38' W 074°08'0 0.0
2018-Jun-14 15:57N 40°38' W 074°08'0 0.0
2018-Jun-14 13:36N 40°38' W 074°08'0 0.1
2018-Jun-14 13:27N 40°38' W 074°08'0 0.0
2018-Jun-14 13:00N 40°38' W 074°08'0 0.0
2018-Jun-14 12:27N 40°38' W 074°08'0 0.0
2018-Jun-14 11:12N 40°38' W 074°08'0 0.0
2018-Jun-14 09:42N 40°38' W 074°08'0 0.0
2018-Jun-14 09:15N 40°38' W 074°08'0 0.0
2018-Jun-14 05:27N 40°38' W 074°08'0 0.0
2018-Jun-14 03:35N 40°38' W 074°08'0 0.0
2018-Jun-14 03:27N 40°38' W 074°08'0 0.0
2018-Jun-13 23:45N 40°38' W 074°08'0 0.0
2018-Jun-13 23:27N 40°38' W 074°08'0 0.0
2018-Jun-13 22:59N 40°38' W 074°08'0 0.0
2018-Jun-13 22:24N 40°38' W 074°08'0 0.0
2018-Jun-13 19:11N 40°38' W 074°08'0 0.0
2018-Jun-13 18:57N 40°38' W 074°08'0 0.0
2018-Jun-13 18:26N 40°38' W 074°08'0 0.0
2018-Jun-13 17:53N 40°38' W 074°08'0 0.0
2018-Jun-13 17:02N 40°38' W 074°08'0 0.0
2018-Jun-13 16:59N 40°38' W 074°08'0 0.0
2018-Jun-13 14:21N 40°38' W 074°08'0 0.0
2018-Jun-13 10:56N 40°38' W 074°08'0 0.0
2018-Jun-13 10:29N 40°38' W 074°08'0 0.0
2018-Jun-13 10:00N 40°38' W 074°08'0 0.0
2018-Jun-13 09:20N 40°38' W 074°08'0 0.0
2018-Jun-13 09:00N 40°38' W 074°08'0 0.0
2018-Jun-13 08:17N 40°38' W 074°08'0 0.0
2018-Jun-13 05:56N 40°38' W 074°08'0 0.0
2018-Jun-13 04:08N 40°38' W 074°08'0 0.0
2018-Jun-13 02:41N 40°38' W 074°08'0 0.0
2018-Jun-13 02:12N 40°38' W 074°08'0 0.0
2018-Jun-13 01:56N 40°38' W 074°08'0 0.0
2018-Jun-13 01:26N 40°38' W 074°08'0 0.0
2018-Jun-13 00:50N 40°38' W 074°08'0 0.0
2018-Jun-12 20:14N 40°38' W 074°08'  

Dump ship's entire track history